createdAt,value
2023-01-26T00:00:56.011Z,-0.81
2023-01-26T00:03:23.305Z,-0.82
2023-01-26T00:05:50.735Z,-0.78
2023-01-26T00:08:18.143Z,-0.74
2023-01-26T00:10:51.697Z,-0.61
2023-01-26T00:13:19.915Z,-0.61
2023-01-26T00:15:47.313Z,-0.58
2023-01-26T00:18:14.769Z,-0.58
2023-01-26T00:20:41.998Z,-0.63
2023-01-26T00:23:09.261Z,-0.59
2023-01-26T00:25:37.896Z,-0.64
2023-01-26T00:28:05.255Z,-0.62
2023-01-26T00:30:32.510Z,-0.60
2023-01-26T00:32:59.764Z,-0.59
2023-01-26T00:35:27.014Z,-0.57
2023-01-26T00:37:54.993Z,-0.66
2023-01-26T00:40:22.237Z,-0.72
2023-01-26T00:42:49.631Z,-0.67
2023-01-26T00:45:16.947Z,-0.68
2023-01-26T00:47:45.786Z,-0.73
2023-01-26T00:50:13.715Z,-0.58
2023-01-26T00:52:41.239Z,-0.58
2023-01-26T00:55:08.889Z,-0.57
2023-01-26T00:57:36.151Z,-0.47
2023-01-26T01:00:04.739Z,-0.51
2023-01-26T01:02:32.171Z,-0.59
2023-01-26T01:04:59.508Z,-0.64
2023-01-26T01:07:26.716Z,-0.56
2023-01-26T01:09:53.913Z,-0.54
2023-01-26T01:12:21.092Z,-0.48
2023-01-26T01:14:48.315Z,-0.48
2023-01-26T01:17:15.532Z,-0.60
2023-01-26T01:19:42.913Z,-0.63
2023-01-26T01:22:10.386Z,-0.56
2023-01-26T01:24:37.787Z,-0.50
2023-01-26T01:27:05.017Z,-0.57
2023-01-26T01:29:32.410Z,-0.59
2023-01-26T01:31:59.695Z,-0.47
2023-01-26T01:34:28.144Z,-0.45
2023-01-26T01:36:56.347Z,-0.40
2023-01-26T01:39:23.627Z,-0.35
2023-01-26T01:41:51.327Z,-0.29
2023-01-26T01:44:20.428Z,-0.17
2023-01-26T01:47:07.953Z,-0.20
2023-01-26T01:49:38.673Z,-0.31
2023-01-26T01:52:08.967Z,-0.25
2023-01-26T01:54:44.653Z,-0.31
2023-01-26T01:57:18.413Z,-0.34
2023-01-26T01:59:49.608Z,-0.36
2023-01-26T02:02:16.921Z,-0.37
2023-01-26T02:04:44.737Z,-0.36
2023-01-26T02:07:12.254Z,-0.34
2023-01-26T02:10:00.221Z,-0.25
2023-01-26T02:12:29.534Z,-0.29
2023-01-26T02:14:57.999Z,-0.22
2023-01-26T02:17:26.805Z,-0.31
2023-01-26T02:19:57.082Z,-0.26
2023-01-26T02:22:44.299Z,-0.24
2023-01-26T02:25:25.683Z,-0.45
2023-01-26T02:27:52.933Z,-0.44
2023-01-26T02:30:22.667Z,-0.51
2023-01-26T02:32:50.050Z,-0.41
2023-01-26T02:35:17.569Z,-0.41
2023-01-26T02:37:45.216Z,-0.54
2023-01-26T02:40:13.003Z,-0.48
2023-01-26T02:42:42.145Z,-0.40
2023-01-26T02:45:11.007Z,-0.53
2023-01-26T02:47:38.323Z,-0.52
2023-01-26T02:50:06.083Z,-0.55
2023-01-26T02:52:33.739Z,-0.63
2023-01-26T02:55:28.445Z,-0.65
2023-01-26T02:57:57.411Z,-0.60
2023-01-26T03:00:29.087Z,-0.60
2023-01-26T03:02:58.727Z,-0.59
2023-01-26T03:05:26.768Z,-0.62
2023-01-26T03:07:55.626Z,-0.57
2023-01-26T03:10:27.205Z,-0.62
2023-01-26T03:12:54.682Z,-0.68
2023-01-26T03:15:40.581Z,-0.63
2023-01-26T03:18:27.572Z,-0.63
2023-01-26T03:21:13.503Z,-0.61
2023-01-26T03:23:59.397Z,-0.56
2023-01-26T03:26:46.808Z,-0.56
2023-01-26T03:29:14.068Z,-0.57
2023-01-26T03:31:43.311Z,-0.48
2023-01-26T03:34:11.319Z,-0.41
2023-01-26T03:36:39.497Z,-0.35
2023-01-26T03:39:32.025Z,-0.36
2023-01-26T03:42:18.222Z,-0.24
2023-01-26T03:45:04.266Z,-0.41
2023-01-26T03:47:50.689Z,-0.46
2023-01-26T03:50:37.168Z,-0.54
2023-01-26T03:53:37.220Z,-0.42
2023-01-26T03:56:24.551Z,-0.48
2023-01-26T03:58:56.786Z,-0.59
2023-01-26T04:01:28.242Z,-0.71
2023-01-26T04:04:17.192Z,-0.73
2023-01-26T04:07:06.082Z,-0.56
2023-01-26T04:09:34.883Z,-0.63
2023-01-26T04:12:02.488Z,-0.54
2023-01-26T04:14:50.613Z,-0.65
2023-01-26T04:17:42.988Z,-0.61
2023-01-26T04:20:28.909Z,-0.66
2023-01-26T04:22:56.470Z,-0.65
2023-01-26T04:25:24.074Z,-0.43
2023-01-26T04:27:51.794Z,-0.48
2023-01-26T04:30:19.952Z,-0.49
2023-01-26T04:32:47.338Z,-0.48
2023-01-26T04:35:14.855Z,-0.43
2023-01-26T04:37:44.012Z,-0.51
2023-01-26T04:40:11.818Z,-0.44
2023-01-26T04:42:40.363Z,-0.47
2023-01-26T04:45:09.122Z,-0.48
2023-01-26T04:47:36.818Z,-0.47
2023-01-26T04:50:04.857Z,-0.42
2023-01-26T04:52:32.689Z,-0.50
2023-01-26T04:55:00.561Z,-0.49
2023-01-26T04:57:30.288Z,-0.53
2023-01-26T04:59:59.792Z,-0.46
2023-01-26T05:02:27.195Z,-0.45
2023-01-26T05:04:54.486Z,-0.40
2023-01-26T05:07:22.290Z,-0.44
2023-01-26T05:09:50.129Z,-0.51
2023-01-26T05:12:43.436Z,-0.48
2023-01-26T05:15:28.575Z,-0.41
2023-01-26T05:18:05.396Z,-0.46
2023-01-26T05:20:39.762Z,-0.22
2023-01-26T05:23:16.177Z,-0.37
2023-01-26T05:26:06.432Z,-0.40
2023-01-26T05:28:44.141Z,-0.30
2023-01-26T05:31:11.389Z,-0.44
2023-01-26T05:33:38.798Z,-0.39
2023-01-26T05:36:07.951Z,-0.37
2023-01-26T05:38:36.034Z,-0.36
2023-01-26T05:41:03.726Z,-0.38
2023-01-26T05:43:38.834Z,-0.29
2023-01-26T05:46:12.306Z,-0.22
2023-01-26T05:48:42.846Z,-0.33
2023-01-26T05:51:10.050Z,-0.24
2023-01-26T05:53:38.525Z,-0.24
2023-01-26T05:56:06.019Z,-0.36
2023-01-26T05:58:35.337Z,-0.41
2023-01-26T06:01:06.138Z,-0.40
2023-01-26T06:03:43.003Z,-0.26
2023-01-26T06:06:10.504Z,-0.19
2023-01-26T06:08:44.738Z,-0.25
2023-01-26T06:11:31.693Z,-0.21
2023-01-26T06:14:08.670Z,-0.22
2023-01-26T06:16:35.944Z,-0.15
2023-01-26T06:19:03.616Z,-0.14
2023-01-26T06:21:31.190Z,-0.24
2023-01-26T06:23:58.789Z,-0.42
2023-01-26T06:26:26.405Z,-0.36
2023-01-26T06:28:55.646Z,-0.34
2023-01-26T06:31:24.939Z,-0.17
2023-01-26T06:33:52.833Z,-0.10
2023-01-26T06:36:20.308Z,-0.21
2023-01-26T06:38:54.948Z,-0.21
2023-01-26T06:41:23.560Z,-0.20
2023-01-26T06:43:51.285Z,-0.15
2023-01-26T06:46:19.796Z,-0.07
2023-01-26T06:48:49.449Z,-0.04
2023-01-26T06:51:16.905Z,-0.09
2023-01-26T06:53:51.633Z,-0.12
2023-01-26T06:56:42.089Z,-0.12
2023-01-26T06:59:32.258Z,-0.11
2023-01-26T07:02:20.320Z,0.01
2023-01-26T07:04:48.080Z,0.04
2023-01-26T07:07:15.642Z,0.23
2023-01-26T07:09:43.545Z,0.17
2023-01-26T07:12:10.983Z,0.18
2023-01-26T07:14:38.264Z,0.10
2023-01-26T07:17:05.703Z,0.09
2023-01-26T07:19:34.009Z,0.14
2023-01-26T07:22:01.922Z,0.11
2023-01-26T07:24:29.798Z,0.07
2023-01-26T07:26:57.287Z,-0.07
2023-01-26T07:29:25.010Z,0.06
2023-01-26T07:31:52.416Z,0.03
2023-01-26T07:34:20.178Z,0.05
2023-01-26T07:36:47.436Z,0.13
2023-01-26T07:39:14.666Z,0.03
2023-01-26T07:41:41.949Z,0.01
2023-01-26T07:44:28.645Z,0.12
2023-01-26T07:46:56.067Z,0.28
2023-01-26T07:49:23.467Z,0.35
2023-01-26T07:51:52.617Z,0.35
2023-01-26T07:54:21.861Z,0.42
2023-01-26T07:56:53.168Z,0.48
2023-01-26T07:59:20.843Z,0.46
2023-01-26T08:01:51.684Z,0.45
2023-01-26T08:04:19.418Z,0.46
2023-01-26T08:06:46.734Z,0.54
2023-01-26T08:09:14.085Z,0.54
2023-01-26T08:11:41.308Z,0.72
2023-01-26T08:14:08.533Z,0.67
2023-01-26T08:16:36.139Z,0.65
2023-01-26T08:19:04.001Z,0.72
2023-01-26T08:21:31.273Z,0.67
2023-01-26T08:24:02.089Z,0.66
2023-01-26T08:26:29.678Z,0.65
2023-01-26T08:28:57.598Z,0.70
2023-01-26T08:31:25.613Z,0.77
2023-01-26T08:33:54.439Z,0.81
2023-01-26T08:36:22.873Z,0.78
2023-01-26T08:38:50.940Z,0.88
2023-01-26T08:41:18.804Z,0.92
2023-01-26T08:43:46.416Z,0.95
2023-01-26T08:46:14.027Z,0.88
2023-01-26T08:48:41.335Z,0.90
2023-01-26T08:51:08.849Z,1.05
2023-01-26T08:53:37.404Z,0.97
2023-01-26T08:56:06.238Z,0.97
2023-01-26T08:58:36.344Z,0.77
2023-01-26T09:01:08.103Z,0.68
2023-01-26T09:03:35.658Z,0.70
2023-01-26T09:06:04.501Z,0.75
2023-01-26T09:08:34.229Z,0.80
2023-01-26T09:11:01.590Z,0.76
2023-01-26T09:13:28.864Z,0.86
2023-01-26T09:15:56.172Z,1.06
2023-01-26T09:18:23.464Z,1.09
2023-01-26T09:20:51.399Z,1.14
2023-01-26T09:23:18.816Z,1.16
2023-01-26T09:25:46.250Z,1.09
2023-01-26T09:28:13.463Z,1.10
2023-01-26T09:30:40.955Z,1.15
2023-01-26T09:33:08.286Z,1.20
2023-01-26T09:35:35.536Z,1.28
2023-01-26T09:38:02.817Z,1.34
2023-01-26T09:40:30.015Z,1.35
2023-01-26T09:42:57.490Z,1.36
2023-01-26T09:45:29.297Z,1.29
2023-01-26T09:48:05.421Z,1.41
2023-01-26T09:50:40.214Z,1.29
2023-01-26T09:53:13.076Z,1.38
2023-01-26T09:55:40.656Z,1.27
2023-01-26T09:58:26.526Z,1.26
2023-01-26T10:00:57.659Z,1.28
2023-01-26T10:03:29.373Z,1.21
2023-01-26T10:06:15.893Z,1.24
2023-01-26T10:09:06.343Z,1.30
2023-01-26T10:11:35.340Z,1.40
2023-01-26T10:14:25.973Z,1.56
2023-01-26T10:16:53.994Z,1.33
2023-01-26T10:19:33.865Z,1.21
2023-01-26T10:22:07.021Z,1.20
2023-01-26T10:24:35.256Z,1.24
2023-01-26T10:27:02.550Z,1.13
2023-01-26T10:29:29.854Z,1.12
2023-01-26T10:31:57.130Z,1.11
2023-01-26T10:34:25.521Z,1.25
2023-01-26T10:36:56.981Z,1.23
2023-01-26T10:39:24.211Z,1.16
2023-01-26T10:42:01.997Z,1.05
2023-01-26T10:44:34.231Z,1.11
2023-01-26T10:47:04.656Z,1.20
2023-01-26T10:49:31.896Z,1.13
2023-01-26T10:52:35.898Z,1.01
2023-01-26T10:55:13.338Z,1.02
2023-01-26T10:57:42.863Z,1.10
2023-01-26T11:00:30.501Z,1.20
2023-01-26T11:03:00.876Z,1.29
2023-01-26T11:05:28.391Z,1.35
2023-01-26T11:08:00.491Z,1.33
2023-01-26T11:10:30.510Z,1.31
2023-01-26T11:13:17.606Z,1.26
2023-01-26T11:15:48.057Z,1.31
2023-01-26T11:18:33.729Z,1.43
2023-01-26T11:21:10.305Z,1.36
2023-01-26T11:23:42.456Z,1.37
2023-01-26T11:26:09.813Z,1.44
2023-01-26T11:29:09.494Z,1.38
2023-01-26T11:31:39.151Z,1.42
2023-01-26T11:34:29.363Z,1.27
2023-01-26T11:37:11.757Z,1.29
2023-01-26T11:39:44.933Z,1.30
2023-01-26T11:42:25.351Z,1.24
2023-01-26T11:44:58.803Z,1.30
2023-01-26T11:47:32.046Z,1.15
2023-01-26T11:50:14.601Z,1.14
2023-01-26T11:52:48.846Z,1.15
2023-01-26T11:55:42.131Z,1.02
2023-01-26T11:58:12.665Z,1.04
2023-01-26T12:00:44.319Z,1.05
2023-01-26T12:03:30.083Z,1.13
2023-01-26T12:06:06.871Z,1.07
2023-01-26T12:08:38.465Z,1.05
2023-01-26T12:11:23.725Z,1.03
2023-01-26T12:13:54.135Z,1.05
2023-01-26T12:16:27.674Z,0.88
2023-01-26T12:19:10.853Z,0.87
2023-01-26T12:21:40.285Z,0.98
2023-01-26T12:24:35.773Z,0.95
2023-01-26T12:27:00.701Z,0.88
2023-01-26T12:29:41.713Z,0.88
2023-01-26T12:32:11.303Z,0.90
2023-01-26T12:34:38.584Z,0.91
2023-01-26T12:37:17.960Z,0.96
2023-01-26T12:39:46.187Z,1.02
2023-01-26T12:42:19.489Z,1.17
2023-01-26T12:44:50.598Z,1.11
2023-01-26T12:47:36.323Z,1.01
2023-01-26T12:50:16.343Z,1.04
2023-01-26T12:52:50.629Z,0.98
2023-01-26T12:55:20.951Z,1.03
2023-01-26T12:57:51.021Z,1.05
2023-01-26T13:00:20.916Z,1.17
2023-01-26T13:02:51.725Z,1.20
2023-01-26T13:05:35.132Z,1.08
2023-01-26T13:08:21.026Z,1.19
2023-01-26T13:10:50.668Z,1.16
2023-01-26T13:13:17.886Z,1.13
2023-01-26T13:15:45.527Z,1.15
2023-01-26T13:18:17.381Z,1.15
2023-01-26T13:20:46.077Z,1.14
2023-01-26T13:23:28.671Z,1.15
2023-01-26T13:26:15.190Z,1.19
2023-01-26T13:28:42.897Z,1.10
2023-01-26T13:31:11.606Z,1.16
2023-01-26T13:33:40.042Z,1.27
2023-01-26T13:36:18.383Z,1.28
2023-01-26T13:38:55.892Z,1.22
2023-01-26T13:41:23.235Z,1.25
2023-01-26T13:44:05.042Z,1.42
2023-01-26T13:46:36.781Z,1.30
2023-01-26T13:49:04.065Z,1.33
2023-01-26T13:51:32.469Z,1.40
2023-01-26T13:54:07.640Z,1.32
2023-01-26T13:56:36.533Z,1.40
2023-01-26T13:59:05.032Z,1.37
2023-01-26T14:01:32.521Z,1.24
2023-01-26T14:04:06.879Z,1.21
2023-01-26T14:06:36.667Z,1.22
2023-01-26T14:09:05.139Z,1.24
2023-01-26T14:11:33.310Z,1.26
2023-01-26T14:14:01.605Z,1.28
2023-01-26T14:16:30.587Z,1.28
2023-01-26T14:19:09.967Z,1.27
2023-01-26T14:21:46.544Z,1.25
2023-01-26T14:24:13.951Z,1.22
2023-01-26T14:26:41.963Z,1.29
2023-01-26T14:29:18.391Z,1.36
2023-01-26T14:31:46.819Z,1.34
2023-01-26T14:34:18.405Z,1.21
2023-01-26T14:36:45.632Z,1.16
2023-01-26T14:39:20.432Z,1.23
2023-01-26T14:41:48.788Z,1.33
2023-01-26T14:44:16.228Z,1.27
2023-01-26T14:46:49.750Z,1.16
2023-01-26T14:49:20.784Z,1.25
2023-01-26T14:51:52.056Z,1.14
2023-01-26T14:54:25.349Z,1.15
2023-01-26T14:56:52.706Z,1.01
2023-01-26T14:59:25.178Z,0.90
2023-01-26T15:02:02.300Z,0.94
2023-01-26T15:04:36.842Z,0.97
2023-01-26T15:07:22.609Z,0.92
2023-01-26T15:09:53.578Z,0.90
2023-01-26T15:12:21.787Z,1.04
2023-01-26T15:14:56.238Z,0.99
2023-01-26T15:17:30.579Z,0.82
2023-01-26T15:19:57.993Z,0.93
2023-01-26T15:22:26.541Z,0.98
2023-01-26T15:25:01.365Z,0.90
2023-01-26T15:27:35.541Z,0.89
2023-01-26T15:30:04.569Z,0.88
2023-01-26T15:32:37.233Z,0.82
2023-01-26T15:35:21.217Z,0.80
2023-01-26T15:37:48.836Z,0.72
2023-01-26T15:40:19.458Z,0.80
2023-01-26T15:42:46.722Z,0.72
2023-01-26T15:45:36.477Z,0.70
2023-01-26T15:48:03.948Z,0.77
2023-01-26T15:50:31.182Z,0.72
2023-01-26T15:52:58.380Z,0.89
2023-01-26T15:55:27.648Z,0.94
2023-01-26T15:57:54.874Z,0.89
2023-01-26T16:00:23.687Z,0.75
2023-01-26T16:02:51.493Z,0.73
2023-01-26T16:05:19.971Z,0.72
2023-01-26T16:07:48.204Z,0.65
2023-01-26T16:10:16.852Z,0.64
2023-01-26T16:12:44.764Z,0.64
2023-01-26T16:15:30.547Z,0.53
2023-01-26T16:17:57.765Z,0.58
2023-01-26T16:20:25.155Z,0.51
2023-01-26T16:22:52.491Z,0.53
2023-01-26T16:25:22.983Z,0.54
2023-01-26T16:27:50.543Z,0.39
2023-01-26T16:30:18.703Z,0.46
2023-01-26T16:32:45.933Z,0.39
2023-01-26T16:35:15.026Z,0.42
2023-01-26T16:37:42.841Z,0.31
2023-01-26T16:40:11.154Z,0.26
2023-01-26T16:42:39.895Z,0.33
2023-01-26T16:45:07.864Z,0.40
2023-01-26T16:47:35.191Z,0.40
2023-01-26T16:50:02.908Z,0.44
2023-01-26T16:52:30.172Z,0.48
2023-01-26T16:54:57.607Z,0.50
2023-01-26T16:57:24.944Z,0.54
2023-01-26T16:59:52.369Z,0.51
2023-01-26T17:02:34.180Z,0.54
2023-01-26T17:05:03.983Z,0.63
2023-01-26T17:07:31.461Z,0.55
2023-01-26T17:09:58.731Z,0.46
2023-01-26T17:12:33.409Z,0.46
2023-01-26T17:15:00.635Z,0.45
2023-01-26T17:17:27.873Z,0.40
2023-01-26T17:19:55.728Z,0.41
2023-01-26T17:22:23.624Z,0.39
2023-01-26T17:24:50.851Z,0.36
2023-01-26T17:27:18.150Z,0.36
2023-01-26T17:29:45.388Z,0.50
2023-01-26T17:32:12.677Z,0.42
2023-01-26T17:34:39.862Z,0.37
2023-01-26T17:37:07.119Z,0.24
2023-01-26T17:39:34.356Z,0.26
2023-01-26T17:42:01.720Z,0.26
2023-01-26T17:44:29.008Z,0.24
2023-01-26T17:46:56.233Z,0.15
2023-01-26T17:49:25.046Z,0.27
2023-01-26T17:51:52.397Z,0.27
2023-01-26T17:54:19.704Z,0.36
2023-01-26T17:56:46.963Z,0.39
2023-01-26T17:59:14.322Z,0.31
2023-01-26T18:01:41.638Z,0.22
2023-01-26T18:04:09.003Z,0.20
2023-01-26T18:06:36.256Z,0.36
2023-01-26T18:09:03.536Z,0.27
2023-01-26T18:11:31.043Z,0.28
2023-01-26T18:13:59.688Z,0.30
2023-01-26T18:16:26.936Z,0.31
2023-01-26T18:18:55.117Z,0.34
2023-01-26T18:21:27.347Z,0.31
2023-01-26T18:23:56.179Z,0.36
2023-01-26T18:26:24.753Z,0.36
2023-01-26T18:28:52.427Z,0.38
2023-01-26T18:31:24.154Z,0.46
2023-01-26T18:33:51.405Z,0.42
2023-01-26T18:36:19.507Z,0.44
2023-01-26T18:38:51.478Z,0.22
2023-01-26T18:41:19.190Z,0.27
2023-01-26T18:43:49.301Z,0.34
2023-01-26T18:46:16.829Z,0.22
2023-01-26T18:48:44.106Z,0.23
2023-01-26T18:51:11.443Z,0.30
2023-01-26T18:53:44.123Z,0.20
2023-01-26T18:56:15.235Z,0.20
2023-01-26T18:58:42.705Z,0.12
2023-01-26T19:01:15.021Z,0.31
2023-01-26T19:03:47.435Z,0.16
2023-01-26T19:06:18.434Z,0.09
2023-01-26T19:08:46.607Z,0.11
2023-01-26T19:11:15.364Z,0.14
2023-01-26T19:13:44.240Z,0.20
2023-01-26T19:16:11.533Z,0.27
2023-01-26T19:18:38.860Z,0.22
2023-01-26T19:21:06.128Z,0.13
2023-01-26T19:23:34.173Z,0.04
2023-01-26T19:26:01.586Z,0.05
2023-01-26T19:28:28.820Z,0.08
2023-01-26T19:31:02.168Z,0.21
2023-01-26T19:33:30.680Z,0.16
2023-01-26T19:36:00.380Z,0.26
2023-01-26T19:38:29.953Z,0.28
2023-01-26T19:41:00.531Z,0.28
2023-01-26T19:43:28.335Z,0.24
2023-01-26T19:45:56.691Z,0.22
2023-01-26T19:48:27.994Z,0.21
2023-01-26T19:50:59.399Z,0.39
2023-01-26T19:53:28.089Z,0.33
2023-01-26T19:55:55.446Z,0.23
2023-01-26T19:58:22.785Z,0.14
2023-01-26T20:00:50.124Z,0.12
2023-01-26T20:03:18.872Z,0.16
2023-01-26T20:05:46.077Z,0.17
2023-01-26T20:08:13.361Z,0.21
2023-01-26T20:10:40.699Z,0.27
2023-01-26T20:13:07.905Z,0.35
2023-01-26T20:15:35.634Z,0.40
2023-01-26T20:18:03.612Z,0.52
2023-01-26T20:20:30.882Z,0.46
2023-01-26T20:22:58.164Z,0.66
2023-01-26T20:25:31.755Z,0.43
2023-01-26T20:27:58.976Z,0.34
2023-01-26T20:30:26.185Z,0.33
2023-01-26T20:32:54.309Z,0.36
2023-01-26T20:35:21.772Z,0.32
2023-01-26T20:37:48.965Z,0.18
2023-01-26T20:40:16.232Z,0.11
2023-01-26T20:42:43.452Z,0.10
2023-01-26T20:45:11.340Z,0.08
2023-01-26T20:47:40.444Z,0.21
2023-01-26T20:50:08.530Z,0.19
2023-01-26T20:52:35.911Z,0.20
2023-01-26T20:55:03.588Z,0.21
2023-01-26T20:57:32.370Z,0.20
2023-01-26T21:00:00.111Z,0.27
2023-01-26T21:02:27.521Z,0.21
2023-01-26T21:04:54.766Z,0.14
2023-01-26T21:07:22.116Z,0.11
2023-01-26T21:09:49.394Z,0.07
2023-01-26T21:12:16.607Z,0.04
2023-01-26T21:14:45.411Z,0.21
2023-01-26T21:17:12.835Z,-0.04
2023-01-26T21:19:40.052Z,0.06
2023-01-26T21:22:07.289Z,-0.05
2023-01-26T21:24:35.203Z,0.02
2023-01-26T21:27:02.869Z,-0.01
2023-01-26T21:29:30.105Z,0.06
2023-01-26T21:31:57.454Z,0.04
2023-01-26T21:34:24.696Z,0.15
2023-01-26T21:36:51.922Z,0.02
2023-01-26T21:39:21.993Z,0.02
2023-01-26T21:41:59.730Z,0.04
2023-01-26T21:44:31.027Z,0.13
2023-01-26T21:47:03.873Z,0.12
2023-01-26T21:49:31.149Z,0.20
2023-01-26T21:52:16.943Z,0.21
2023-01-26T21:54:45.689Z,0.09
2023-01-26T21:57:31.580Z,0.23
2023-01-26T21:59:58.801Z,0.17
2023-01-26T22:02:26.514Z,0.02
2023-01-26T22:04:53.733Z,-0.05
2023-01-26T22:07:21.012Z,-0.01
2023-01-26T22:09:48.544Z,-0.03
2023-01-26T22:12:17.043Z,-0.01
2023-01-26T22:14:44.304Z,-0.07
2023-01-26T22:17:11.504Z,-0.05
2023-01-26T22:19:38.764Z,-0.16
2023-01-26T22:22:06.202Z,-0.06
2023-01-26T22:24:33.486Z,-0.10
2023-01-26T22:27:01.073Z,-0.23
2023-01-26T22:29:28.368Z,-0.21
2023-01-26T22:31:55.604Z,-0.11
2023-01-26T22:34:22.990Z,-0.30
2023-01-26T22:36:50.227Z,-0.30
2023-01-26T22:39:17.649Z,-0.17
2023-01-26T22:41:44.839Z,0.01
2023-01-26T22:44:12.367Z,0.03
2023-01-26T22:46:39.670Z,-0.15
2023-01-26T22:49:06.990Z,-0.16
2023-01-26T22:51:37.428Z,-0.08
2023-01-26T22:54:05.390Z,-0.15
2023-01-26T22:56:32.692Z,-0.05
2023-01-26T22:59:00.742Z,-0.02
2023-01-26T23:01:29.341Z,-0.08
2023-01-26T23:03:56.847Z,-0.18
2023-01-26T23:06:24.796Z,-0.18
2023-01-26T23:08:52.180Z,-0.17
2023-01-26T23:11:21.397Z,-0.17
2023-01-26T23:13:49.483Z,-0.11
2023-01-26T23:16:17.473Z,-0.23
2023-01-26T23:18:45.156Z,-0.26
2023-01-26T23:21:12.392Z,-0.20
2023-01-26T23:23:40.776Z,-0.18
2023-01-26T23:26:08.685Z,-0.15
2023-01-26T23:28:37.348Z,-0.20
2023-01-26T23:31:05.084Z,-0.08
2023-01-26T23:33:34.174Z,-0.21
2023-01-26T23:36:01.677Z,-0.16
2023-01-26T23:38:29.753Z,-0.20
2023-01-26T23:40:57.551Z,-0.27
2023-01-26T23:43:24.863Z,-0.19
2023-01-26T23:45:52.554Z,-0.20
2023-01-26T23:48:20.103Z,-0.25
2023-01-26T23:50:47.371Z,-0.34
2023-01-26T23:53:14.875Z,-0.43
2023-01-26T23:55:43.019Z,-0.53
2023-01-26T23:58:10.988Z,-0.49
